Time;durP1;ratioP1;P1;durP2;ratioP2;P2;SDS_P1;SDS_P2;PMS_P1;PMS_P2;Temp;Humidity;BMP_temperature;BMP_pressure;BME280_temperature;BME280_humidity;BME280_pressure;Samples;Min_cycle;Max_cycle;Signal;HPM_P1;HPM_P2
2022/12/01 00:01:08;;;;;;;43.88;15.23;;;5.60;99.90;;;;;;6185365;23;20021;-84
2022/12/01 00:03:35;;;;;;;44.00;16.02;;;6.70;99.90;;;;;;6184945;23;20318;-84
2022/12/01 00:06:06;;;;;;;41.17;14.38;;;6.50;99.90;;;;;;6185432;23;20017;-84
2022/12/01 00:08:32;;;;;;;42.40;14.85;;;5.70;99.90;;;;;;6158858;23;20017;-84
2022/12/01 00:11:10;;;;;;;43.83;14.88;;;5.70;99.90;;;;;;6158372;23;20023;-84
2022/12/01 00:13:36;;;;;;;39.85;14.48;;;5.70;99.90;;;;;;6158701;23;20017;-85
2022/12/01 00:16:13;;;;;;;39.90;13.13;;;5.60;99.90;;;;;;6185137;23;20386;-84
2022/12/01 00:18:39;;;;;;;33.35;13.50;;;5.70;99.90;;;;;;6185308;23;20017;-84
2022/12/01 00:21:04;;;;;;;32.80;12.52;;;6.50;99.90;;;;;;6185050;23;20024;-85
2022/12/01 00:23:30;;;;;;;34.85;11.77;;;5.70;99.90;;;;;;6158718;23;20028;-84
2022/12/01 00:26:04;;;;;;;32.70;11.50;;;6.20;99.90;;;;;;6185059;23;20017;-84
2022/12/01 00:28:30;;;;;;;37.67;12.52;;;5.70;99.90;;;;;;6185382;23;20020;-84
2022/12/01 00:30:56;;;;;;;36.92;12.68;;;5.70;99.90;;;;;;6158584;23;20317;-84
2022/12/01 00:33:21;;;;;;;34.45;12.65;;;6.10;99.90;;;;;;6157741;23;20120;-84
2022/12/01 00:35:47;;;;;;;34.60;11.50;;;5.60;99.90;;;;;;6184691;23;20020;-84
2022/12/01 00:38:13;;;;;;;32.38;12.40;;;6.00;99.90;;;;;;6184540;23;20015;-84
2022/12/01 00:40:38;;;;;;;36.30;13.75;;;5.70;99.90;;;;;;6185233;23;20037;-84
2022/12/01 00:43:04;;;;;;;33.88;12.85;;;5.90;99.90;;;;;;6184413;23;20484;-84
2022/12/01 00:45:30;;;;;;;36.10;13.32;;;5.80;99.90;;;;;;6184777;23;20021;-84
2022/12/01 00:47:55;;;;;;;35.67;12.20;;;5.70;99.90;;;;;;6185042;23;20086;-84
2022/12/01 00:50:21;;;;;;;29.85;11.38;;;5.90;99.90;;;;;;6184980;23;20456;-84
2022/12/01 00:52:46;;;;;;;34.85;13.10;;;6.50;99.90;;;;;;6158200;23;20025;-84
2022/12/01 00:55:12;;;;;;;35.97;12.85;;;6.10;99.90;;;;;;6184690;23;20043;-85
2022/12/01 00:57:38;;;;;;;36.97;11.63;;;5.90;99.90;;;;;;6158186;23;20009;-84
2022/12/01 01:00:04;;;;;;;43.80;14.60;;;4.60;99.90;;;;;;6158629;23;20052;-84
2022/12/01 01:02:30;;;;;;;45.42;15.15;;;5.60;99.90;;;;;;6184700;23;20111;-84
2022/12/01 01:04:56;;;;;;;36.63;14.13;;;5.80;99.90;;;;;;6185050;23;20017;-85
2022/12/01 01:07:22;;;;;;;45.58;16.00;;;5.70;99.90;;;;;;6184751;23;20013;-84
2022/12/01 01:09:47;;;;;;;47.40;14.48;;;5.70;99.90;;;;;;6158022;23;20017;-84
2022/12/01 01:12:13;;;;;;;39.30;14.10;;;6.30;99.90;;;;;;6184919;23;20020;-84
2022/12/01 01:14:39;;;;;;;33.17;12.48;;;5.20;99.90;;;;;;6184779;23;20024;-84
2022/12/01 01:17:04;;;;;;;35.63;12.05;;;6.00;99.90;;;;;;6184750;23;20016;-84
2022/12/01 01:19:30;;;;;;;41.53;14.30;;;5.60;99.90;;;;;;6185157;23;20349;-84
2022/12/01 01:21:56;;;;;;;33.92;11.93;;;6.10;99.90;;;;;;6184500;23;20021;-85
2022/12/01 01:24:21;;;;;;;35.10;12.55;;;6.10;99.90;;;;;;6158607;23;20013;-85
2022/12/01 01:26:47;;;;;;;39.85;13.25;;;5.70;99.90;;;;;;6184789;23;20317;-84
2022/12/01 01:29:13;;;;;;;40.65;14.95;;;6.40;99.90;;;;;;6184529;23;20360;-84
2022/12/01 01:31:38;;;;;;;37.22;14.80;;;6.20;99.90;;;;;;6184783;23;20017;-85
2022/12/01 01:34:04;;;;;;;38.70;13.68;;;6.00;99.90;;;;;;6184298;23;20017;-84
2022/12/01 01:36:31;;;;;;;36.60;12.77;;;5.60;99.90;;;;;;6157976;23;20386;-84
2022/12/01 01:38:57;;;;;;;41.88;14.45;;;6.10;99.90;;;;;;6184802;23;20017;-84
2022/12/01 01:41:23;;;;;;;39.47;14.45;;;6.20;99.90;;;;;;6158113;23;20024;-84
2022/12/01 01:43:58;;;;;;;35.35;11.38;;;6.10;99.90;;;;;;6158387;23;20447;-84
2022/12/01 01:46:32;;;;;;;31.80;12.10;;;5.40;99.90;;;;;;6184575;23;20024;-84
2022/12/01 01:49:07;;;;;;;34.25;12.13;;;5.80;99.90;;;;;;6184711;23;20076;-84
2022/12/01 01:51:51;;;;;;;39.00;13.40;;;5.60;99.90;;;;;;6157862;23;20401;-84
2022/12/01 01:54:22;;;;;;;32.95;12.23;;;5.60;99.90;;;;;;6184760;23;20387;-84
2022/12/01 01:56:50;;;;;;;38.28;13.63;;;5.60;99.90;;;;;;6186502;23;20015;-84
2022/12/01 01:59:25;;;;;;;30.50;11.48;;;5.60;99.90;;;;;;6186232;23;20021;-84
2022/12/01 02:01:58;;;;;;;36.35;14.45;;;5.60;99.90;;;;;;6186116;23;20024;-84
2022/12/01 02:04:26;;;;;;;29.95;11.70;;;5.60;99.90;;;;;;6159406;23;20017;-84
2022/12/01 02:06:52;;;;;;;34.88;12.25;;;5.60;99.90;;;;;;6159723;23;20321;-84
2022/12/01 02:09:18;;;;;;;36.35;12.00;;;6.00;99.90;;;;;;6186302;23;20017;-84
2022/12/01 02:12:14;;;;;;;32.13;12.63;;;5.60;99.90;;;;;;6186358;23;20019;-84
2022/12/01 02:14:53;;;;;;;45.10;15.93;;;5.60;99.90;;;;;;6185930;23;20017;-84
2022/12/01 02:17:28;;;;;;;42.47;13.63;;;5.60;99.90;;;;;;6186097;23;20068;-84
2022/12/01 02:20:15;;;;;;;37.38;13.32;;;5.60;99.90;;;;;;6186010;23;20021;-84
2022/12/01 02:23:09;;;;;;;34.38;13.57;;;5.60;99.90;;;;;;6159370;23;20053;-84
2022/12/01 02:26:09;;;;;;;35.28;12.90;;;5.60;99.90;;;;;;6159760;23;20028;-84
2022/12/01 02:28:49;;;;;;;33.58;12.02;;;5.60;99.90;;;;;;6186613;23;20437;-84
2022/12/01 02:31:40;;;;;;;37.30;12.63;;;5.60;99.90;;;;;;6159510;23;20036;-84
2022/12/01 02:34:16;;;;;;;33.05;12.27;;;5.60;99.90;;;;;;6185663;23;20378;-84
2022/12/01 02:37:07;;;;;;;32.28;12.82;;;6.00;99.90;;;;;;6185699;23;20020;-84
2022/12/01 02:39:55;;;;;;;31.38;12.40;;;5.60;99.90;;;;;;6186271;23;20321;-84
2022/12/01 02:42:50;;;;;;;30.13;12.10;;;5.60;99.90;;;;;;6159447;23;20391;-84
2022/12/01 02:45:29;;;;;;;32.67;11.52;;;5.60;99.90;;;;;;6159814;23;20056;-85
2022/12/01 02:47:59;;;;;;;37.55;12.30;;;5.60;99.90;;;;;;6159475;23;20444;-85
2022/12/01 02:50:28;;;;;;;34.00;11.43;;;5.60;99.90;;;;;;6185911;23;20048;-84
2022/12/01 02:52:54;;;;;;;37.35;12.65;;;6.00;99.90;;;;;;6159226;23;20352;-84
2022/12/01 02:55:20;;;;;;;26.95;11.00;;;5.60;99.90;;;;;;6185792;23;20013;-84
2022/12/01 02:57:45;;;;;;;32.72;12.02;;;6.30;99.90;;;;;;6185988;23;20013;-84
2022/12/01 03:00:12;;;;;;;34.90;12.52;;;6.10;99.90;;;;;;6185650;23;20021;-84
2022/12/01 03:02:42;;;;;;;34.40;12.02;;;5.60;99.90;;;;;;6158902;23;20013;-85
2022/12/01 03:05:29;;;;;;;34.85;13.70;;;5.00;99.90;;;;;;6185902;23;20024;-84
2022/12/01 03:08:15;;;;;;;33.40;13.07;;;5.50;99.90;;;;;;6185311;23;20021;-85
2022/12/01 03:10:56;;;;;;;37.22;13.18;;;5.50;99.90;;;;;;6185507;23;20448;-84
2022/12/01 03:13:44;;;;;;;32.90;11.90;;;5.50;99.90;;;;;;6159180;23;20028;-84
2022/12/01 03:16:45;;;;;;;36.60;13.13;;;5.50;99.90;;;;;;6185689;23;20025;-84
2022/12/01 03:19:36;;;;;;;37.85;13.38;;;5.50;99.90;;;;;;6013027;23;20056;-84
2022/12/01 03:22:23;;;;;;;39.30;12.68;;;5.50;99.90;;;;;;6036925;23;20055;-84
2022/12/01 03:24:51;;;;;;;28.50;11.35;;;5.50;99.90;;;;;;6036750;23;20099;-84
2022/12/01 03:27:24;;;;;;;33.83;11.88;;;5.00;99.90;;;;;;6036722;23;20093;-84
2022/12/01 03:29:54;;;;;;;31.45;11.52;;;6.00;99.90;;;;;;6036609;23;20054;-84
2022/12/01 03:32:35;;;;;;;28.77;10.57;;;5.50;99.90;;;;;;6036762;23;20147;-84
2022/12/01 03:35:09;;;;;;;31.48;11.45;;;5.50;99.90;;;;;;6036608;23;20466;-84
2022/12/01 03:37:39;;;;;;;31.70;11.60;;;5.50;99.90;;;;;;6036706;23;20067;-84
2022/12/01 03:40:09;;;;;;;30.98;11.18;;;5.50;99.90;;;;;;6012990;23;20023;-85
2022/12/01 03:42:40;;;;;;;30.08;10.85;;;5.50;99.90;;;;;;6012611;23;20019;-84
2022/12/01 03:45:16;;;;;;;29.73;12.25;;;5.50;99.90;;;;;;6012966;23;20027;-84
2022/12/01 03:47:41;;;;;;;34.45;12.10;;;5.50;99.90;;;;;;6036624;23;20038;-84
2022/12/01 03:50:12;;;;;;;28.45;11.32;;;5.50;99.90;;;;;;6036609;23;20086;-84
2022/12/01 03:52:48;;;;;;;32.65;11.10;;;5.50;99.90;;;;;;6013026;23;20062;-84
2022/12/01 03:55:25;;;;;;;31.13;10.65;;;5.50;99.90;;;;;;6072183;23;20504;-84
2022/12/01 03:58:11;;;;;;;30.70;11.27;;;5.50;99.90;;;;;;6158762;23;20024;-84
2022/12/01 04:00:36;;;;;;;;;;;5.60;99.90;;;;;;6185959;23;20025;-84
2022/12/01 04:03:05;;;;;;;34.88;12.98;;;5.60;99.90;;;;;;6185023;23;19916;-84
2022/12/01 04:05:32;;;;;;;32.60;11.13;;;5.50;99.90;;;;;;6159043;23;20464;-85
2022/12/01 04:07:59;;;;;;;36.47;12.20;;;6.10;99.90;;;;;;6185138;23;20020;-84
2022/12/01 04:10:26;;;;;;;29.83;11.07;;;5.60;99.90;;;;;;6184874;23;20444;-84
2022/12/01 04:12:57;;;;;;;33.63;11.02;;;5.50;99.90;;;;;;6185403;23;20021;-84
2022/12/01 04:15:23;;;;;;;26.40;10.40;;;5.40;99.90;;;;;;6158561;23;20317;-84
2022/12/01 04:17:49;;;;;;;29.85;10.32;;;5.50;99.90;;;;;;6158319;23;20017;-84
2022/12/01 04:20:16;;;;;;;25.95;10.27;;;5.70;99.90;;;;;;6185367;23;20069;-84
2022/12/01 04:22:43;;;;;;;31.90;11.90;;;5.50;99.90;;;;;;6184846;23;20083;-84
2022/12/01 04:25:09;;;;;;;27.88;10.77;;;6.10;99.90;;;;;;6185402;23;20102;-85
2022/12/01 04:27:35;;;;;;;29.08;11.07;;;6.10;99.90;;;;;;6158611;23;20023;-85
2022/12/01 04:30:02;;;;;;;28.35;10.98;;;5.50;99.90;;;;;;6184867;23;20017;-85
2022/12/01 04:32:27;;;;;;;25.38;9.05;;;5.60;99.90;;;;;;6184856;23;20025;-85
2022/12/01 04:34:53;;;;;;;26.38;9.48;;;5.00;99.90;;;;;;6184620;23;20471;-84
2022/12/01 04:37:19;;;;;;;25.63;9.38;;;6.30;99.90;;;;;;6184362;23;20074;-84
2022/12/01 04:39:45;;;;;;;31.00;10.68;;;6.00;99.90;;;;;;6185209;23;20017;-84
2022/12/01 04:42:10;;;;;;;33.75;11.05;;;5.30;99.90;;;;;;6184946;23;20100;-85
2022/12/01 04:44:36;;;;;;;30.83;10.73;;;6.00;99.90;;;;;;6185197;23;20009;-84
2022/12/01 04:47:03;;;;;;;27.20;10.32;;;6.20;99.90;;;;;;6184911;23;20013;-84
2022/12/01 04:49:29;;;;;;;30.55;10.85;;;5.50;99.90;;;;;;6185129;23;20013;-84
2022/12/01 04:51:55;;;;;;;29.83;11.05;;;4.40;99.90;;;;;;6185029;23;20402;-84
2022/12/01 04:54:21;;;;;;;38.88;13.90;;;6.10;99.90;;;;;;6184501;23;20020;-84
2022/12/01 04:56:47;;;;;;;31.27;9.88;;;5.10;99.90;;;;;;6185286;23;20017;-84
2022/12/01 04:59:13;;;;;;;32.38;12.05;;;5.40;99.90;;;;;;6184732;23;20021;-84
2022/12/01 05:01:39;;;;;;;32.67;10.88;;;5.30;99.90;;;;;;6158337;23;20099;-84
2022/12/01 05:04:05;;;;;;;31.45;11.45;;;4.90;99.90;;;;;;6184017;23;20021;-84
2022/12/01 05:06:31;;;;;;;34.63;13.32;;;5.30;99.90;;;;;;6184581;23;20029;-84
2022/12/01 05:08:59;;;;;;;33.22;11.88;;;5.80;99.90;;;;;;6158361;23;20083;-84
2022/12/01 05:11:26;;;;;;;34.25;12.55;;;5.40;99.90;;;;;;6184779;23;20405;-84
2022/12/01 05:13:52;;;;;;;38.70;13.68;;;5.70;99.90;;;;;;6184338;23;20021;-84
2022/12/01 05:16:26;;;;;;;40.40;14.85;;;5.70;99.90;;;;;;6184733;23;20077;-85
2022/12/01 05:21:40;;;;;;;38.70;13.02;;;4.90;99.90;;;;;;6184815;23;20392;-84
2022/12/01 05:24:07;;;;;;;36.35;13.40;;;4.60;99.90;;;;;;6184874;23;20071;-85
2022/12/01 05:26:33;;;;;;;36.70;14.30;;;4.50;99.90;;;;;;6158481;23;20538;-84
2022/12/01 05:28:59;;;;;;;38.40;14.00;;;5.10;99.90;;;;;;6184681;23;20057;-84
2022/12/01 05:31:24;;;;;;;33.65;13.57;;;4.40;99.90;;;;;;6160158;23;20024;-85
2022/12/01 05:33:50;;;;;;;33.97;13.18;;;4.40;99.90;;;;;;6186237;23;20444;-84
2022/12/01 05:36:15;;;;;;;33.92;12.40;;;4.30;99.90;;;;;;6186450;23;20380;-84
2022/12/01 05:38:41;;;;;;;35.03;13.80;;;4.20;99.90;;;;;;6186434;23;20010;-84
2022/12/01 05:41:07;;;;;;;35.35;13.95;;;4.50;99.90;;;;;;6186725;23;20469;-84
2022/12/01 05:43:32;;;;;;;33.28;12.30;;;4.10;99.90;;;;;;6186350;23;20013;-84
2022/12/01 05:45:58;;;;;;;37.20;12.63;;;4.10;99.90;;;;;;6186387;23;20038;-84
2022/12/01 05:48:24;;;;;;;27.55;11.80;;;4.10;99.90;;;;;;6186805;23;20013;-84
2022/12/01 05:50:50;;;;;;;28.05;12.02;;;4.00;99.90;;;;;;6186606;23;20081;-84
2022/12/01 05:53:16;;;;;;;32.67;11.43;;;3.90;99.90;;;;;;6186578;23;20396;-84
2022/12/01 05:55:42;;;;;;;28.95;10.45;;;4.60;99.90;;;;;;6186475;23;20028;-85
2022/12/01 05:58:08;;;;;;;22.02;8.48;;;4.30;99.90;;;;;;6159922;23;20041;-84
2022/12/01 06:00:34;;;;;;;28.20;10.35;;;3.90;99.90;;;;;;6186506;23;20044;-84
2022/12/01 06:03:01;;;;;;;25.85;9.55;;;3.80;99.90;;;;;;6159780;23;20017;-84
2022/12/01 06:05:27;;;;;;;25.08;8.40;;;3.70;99.90;;;;;;6186295;23;20040;-84
2022/12/01 06:07:52;;;;;;;21.55;8.27;;;4.50;99.90;;;;;;6186076;23;20013;-84
2022/12/01 06:10:18;;;;;;;22.17;8.25;;;3.80;99.90;;;;;;6186505;23;20071;-84
2022/12/01 06:12:44;;;;;;;19.60;8.13;;;4.70;99.90;;;;;;6159605;23;20448;-84
2022/12/01 06:15:11;;;;;;;21.65;7.97;;;3.70;99.90;;;;;;6159966;23;20096;-84
2022/12/01 06:17:37;;;;;;;17.73;6.43;;;3.80;99.90;;;;;;6185983;23;20017;-84
2022/12/01 06:20:07;;;;;;;16.45;6.72;;;3.60;99.90;;;;;;6186197;23;20341;-84
2022/12/01 06:22:32;;;;;;;20.13;7.30;;;3.50;99.90;;;;;;6186382;23;20024;-84
2022/12/01 06:24:58;;;;;;;18.42;7.50;;;3.50;99.90;;;;;;6186270;23;20472;-84
2022/12/01 06:27:24;;;;;;;17.05;6.80;;;2.80;99.90;;;;;;6159598;23;20017;-84
2022/12/01 06:29:49;;;;;;;20.63;6.75;;;4.10;99.90;;;;;;6159696;23;20404;-84
2022/12/01 06:32:15;;;;;;;16.48;7.28;;;3.40;99.90;;;;;;6186086;23;20056;-84
2022/12/01 06:34:42;;;;;;;19.83;6.95;;;3.40;99.90;;;;;;6185732;23;20024;-84
2022/12/01 06:37:09;;;;;;;17.35;7.88;;;3.90;99.90;;;;;;6159573;23;20013;-84
2022/12/01 06:39:34;;;;;;;18.90;7.18;;;3.80;99.90;;;;;;6185651;23;20053;-84
2022/12/01 06:42:00;;;;;;;16.95;6.75;;;3.70;99.90;;;;;;6186351;23;20379;-84
2022/12/01 06:44:26;;;;;;;15.73;6.68;;;3.60;99.90;;;;;;6185620;23;20021;-85
2022/12/01 06:46:51;;;;;;;18.17;7.82;;;3.20;99.90;;;;;;6186001;23;20021;-84
2022/12/01 06:49:18;;;;;;;18.17;8.45;;;3.40;99.90;;;;;;6159469;23;20318;-84
2022/12/01 06:51:44;;;;;;;18.13;7.78;;;3.50;99.90;;;;;;6159356;23;20020;-84
2022/12/01 06:54:13;;;;;;;18.30;8.68;;;3.50;99.90;;;;;;6185970;23;20020;-84
2022/12/01 06:56:41;;;;;;;19.48;8.98;;;3.00;99.90;;;;;;6185493;23;20020;-84
2022/12/01 06:59:07;;;;;;;18.70;7.30;;;3.30;99.90;;;;;;6159580;23;20013;-84
2022/12/01 07:01:33;;;;;;;18.77;7.78;;;3.00;99.90;;;;;;6186255;23;20021;-84
2022/12/01 07:03:58;;;;;;;15.77;7.03;;;3.40;99.90;;;;;;6185424;23;20013;-85
2022/12/01 07:06:24;;;;;;;15.45;6.80;;;3.60;99.90;;;;;;6159530;23;20044;-86
2022/12/01 07:08:51;;;;;;;15.23;6.85;;;2.90;99.90;;;;;;6158590;23;20325;-86
2022/12/01 07:11:16;;;;;;;14.13;6.32;;;4.50;99.90;;;;;;6158972;23;20026;-85
2022/12/01 07:13:48;;;;;;;13.02;6.00;;;2.80;99.90;;;;;;6185515;23;20096;-85
2022/12/01 07:16:14;;;;;;;13.50;5.47;;;2.70;99.90;;;;;;6185390;23;20017;-85
2022/12/01 07:18:40;;;;;;;10.98;5.13;;;2.80;99.90;;;;;;6185299;23;20055;-85
2022/12/01 07:21:08;;;;;;;12.60;5.25;;;2.70;99.90;;;;;;6185417;23;20020;-85
2022/12/01 07:23:34;;;;;;;11.48;5.32;;;2.70;99.90;;;;;;6158967;23;20025;-84
2022/12/01 07:26:02;;;;;;;10.27;5.15;;;3.40;99.90;;;;;;6159003;23;20107;-84
2022/12/01 07:28:28;;;;;;;9.32;3.90;;;3.10;99.90;;;;;;6185848;23;20023;-85
2022/12/01 07:30:59;;;;;;;12.00;4.78;;;3.00;99.90;;;;;;6185905;23;20017;-85
2022/12/01 07:33:25;;;;;;;11.57;5.07;;;2.40;99.90;;;;;;6185162;23;20013;-85
2022/12/01 07:35:52;;;;;;;10.52;5.03;;;3.50;99.90;;;;;;6185659;23;20513;-86
2022/12/01 07:38:18;;;;;;;11.68;4.93;;;3.60;99.90;;;;;;6184871;23;20444;-85
2022/12/01 07:40:43;;;;;;;9.20;4.95;;;2.50;99.90;;;;;;6185720;23;20021;-85
2022/12/01 07:43:09;;;;;;;10.32;4.80;;;3.00;99.90;;;;;;6159021;23;20013;-85
2022/12/01 07:45:35;;;;;;;10.85;5.18;;;2.20;99.90;;;;;;6159136;23;20376;-84
2022/12/01 07:48:01;;;;;;;10.95;5.55;;;2.40;99.90;;;;;;6185035;23;20088;-85
2022/12/01 07:50:26;;;;;;;10.07;4.40;;;2.10;99.90;;;;;;6184790;23;20025;-84
2022/12/01 07:52:52;;;;;;;12.82;4.70;;;3.20;99.90;;;;;;6185225;23;20028;-84
2022/12/01 07:55:18;;;;;;;14.43;6.15;;;2.90;99.90;;;;;;6158371;23;20021;-87
2022/12/01 07:57:43;;;;;;;10.27;4.50;;;3.00;99.90;;;;;;6159118;23;20404;-85
2022/12/01 08:00:10;;;;;;;8.63;3.55;;;2.10;99.90;;;;;;6158628;23;20017;-85
2022/12/01 08:02:35;;;;;;;11.93;4.68;;;2.50;99.90;;;;;;6158223;23;20016;-84
2022/12/01 08:05:01;;;;;;;10.35;5.00;;;2.50;99.90;;;;;;6185308;23;20027;-84
2022/12/01 08:07:27;;;;;;;18.45;7.78;;;2.50;99.90;;;;;;6185739;23;20025;-84
2022/12/01 08:09:52;;;;;;;85.07;79.13;;;2.50;99.90;;;;;;6185269;23;20452;-85
2022/12/01 08:12:18;;;;;;;23.00;9.38;;;2.40;99.90;;;;;;6158840;23;20024;-85
2022/12/01 08:14:44;;;;;;;19.45;7.38;;;2.60;99.90;;;;;;6159260;23;20075;-85
2022/12/01 08:17:09;;;;;;;19.73;7.85;;;2.30;99.90;;;;;;6158876;23;20432;-84
2022/12/01 08:19:35;;;;;;;19.98;8.07;;;3.20;99.90;;;;;;6184797;23;20024;-86
2022/12/01 08:22:01;;;;;;;15.38;6.32;;;2.50;99.90;;;;;;6158852;23;20013;-84
2022/12/01 08:24:26;;;;;;;14.95;6.75;;;3.10;99.90;;;;;;6185086;23;20058;-83
2022/12/01 08:26:52;;;;;;;15.85;6.07;;;2.50;99.90;;;;;;6185370;23;20009;-84
2022/12/01 08:29:18;;;;;;;13.13;6.20;;;1.90;99.90;;;;;;6158440;23;20019;-84
2022/12/01 08:31:43;;;;;;;10.55;4.13;;;3.20;99.90;;;;;;6158325;23;20061;-84
2022/12/01 08:34:09;;;;;;;9.38;4.35;;;2.60;99.90;;;;;;6184413;23;20017;-85
2022/12/01 08:36:36;;;;;;;7.03;3.63;;;2.60;99.90;;;;;;6185324;23;20009;-85
2022/12/01 08:39:02;;;;;;;9.65;4.05;;;3.80;99.90;;;;;;6153586;23;20022;-85
2022/12/01 08:41:30;;;;;;;6.95;3.03;;;2.50;99.90;;;;;;6154293;23;20026;-85
2022/12/01 08:43:58;;;;;;;8.90;3.97;;;3.00;99.90;;;;;;6153880;23;20037;-85
2022/12/01 08:46:23;;;;;;;9.00;3.15;;;3.10;99.90;;;;;;6155184;23;20047;-85
2022/12/01 08:48:49;;;;;;;7.53;3.65;;;2.90;99.90;;;;;;6155259;23;20017;-85
2022/12/01 08:51:17;;;;;;;9.80;3.55;;;2.50;99.90;;;;;;6155077;23;20020;-85
2022/12/01 08:53:45;;;;;;;7.85;3.35;;;2.60;99.90;;;;;;6153755;23;20021;-85
2022/12/01 08:56:21;;;;;;;9.30;3.67;;;2.60;99.90;;;;;;6155375;23;20092;-85
2022/12/01 08:58:47;;;;;;;8.88;3.63;;;2.60;99.90;;;;;;6155573;23;20105;-85
2022/12/01 09:01:14;;;;;;;7.55;3.15;;;3.40;99.90;;;;;;6155225;23;20452;-85
2022/12/01 09:03:41;;;;;;;7.00;3.50;;;2.40;99.90;;;;;;6153498;23;20088;-85
2022/12/01 09:06:21;;;;;;;8.70;3.60;;;3.00;99.90;;;;;;6157090;23;20029;-85
2022/12/01 09:08:47;;;;;;;12.82;4.35;;;3.10;99.90;;;;;;6156034;23;20029;-85
2022/12/01 09:11:16;;;;;;;10.30;4.57;;;3.90;99.90;;;;;;6157258;23;20076;-85
2022/12/01 09:13:43;;;;;;;11.90;5.60;;;3.30;99.90;;;;;;6157444;23;20017;-85
2022/12/01 09:16:14;;;;;;;10.35;5.22;;;3.40;99.90;;;;;;6157054;23;20471;-85
2022/12/01 09:18:41;;;;;;;10.15;4.47;;;3.50;99.90;;;;;;6155571;23;20044;-85
2022/12/01 09:21:29;;;;;;;13.90;5.07;;;3.60;99.90;;;;;;6157085;23;20092;-85
2022/12/01 09:23:55;;;;;;;19.65;6.55;;;4.60;99.90;;;;;;6157486;23;20333;-85
2022/12/01 09:26:22;;;;;;;14.73;5.63;;;3.70;99.90;;;;;;6157331;23;20386;-85
2022/12/01 09:28:56;;;;;;;15.20;6.18;;;4.10;99.90;;;;;;6157510;23;20049;-85
2022/12/01 09:31:23;;;;;;;17.60;7.70;;;4.50;99.90;;;;;;6155552;23;20049;-85
2022/12/01 09:33:54;;;;;;;16.45;6.07;;;2.90;99.90;;;;;;6156798;23;20014;-85
2022/12/01 09:36:20;;;;;;;13.55;6.25;;;4.40;99.90;;;;;;6157156;23;20017;-85
2022/12/01 09:38:45;;;;;;;11.02;4.80;;;4.10;99.90;;;;;;6176163;23;20027;-86
2022/12/01 09:41:35;;;;;;;11.43;4.57;;;4.70;99.90;;;;;;6186966;23;20076;-85
2022/12/01 09:44:29;;;;;;;8.27;3.95;;;4.30;99.90;;;;;;6160149;23;20017;-85
2022/12/01 09:47:20;;;;;;;8.20;3.05;;;4.70;99.90;;;;;;6182392;23;20013;-85
2022/12/01 09:49:56;;;;;;;5.80;2.75;;;4.40;99.90;;;;;;6160224;23;20025;-85
2022/12/01 09:52:25;;;;;;;8.15;3.17;;;4.50;99.90;;;;;;6186833;23;20452;-85
2022/12/01 09:54:54;;;;;;;5.13;2.40;;;4.60;99.90;;;;;;6186804;23;20021;-85
2022/12/01 09:57:27;;;;;;;6.95;2.55;;;4.30;99.90;;;;;;6186529;23;20013;-85
2022/12/01 09:59:53;;;;;;;6.28;2.97;;;5.10;99.90;;;;;;6186827;23;20008;-85
2022/12/01 10:02:36;;;;;;;6.50;2.92;;;4.70;99.90;;;;;;6186566;23;20031;-85
2022/12/01 10:05:10;;;;;;;6.65;2.78;;;4.70;99.90;;;;;;6160123;23;20072;-85
2022/12/01 10:07:43;;;;;;;5.93;2.50;;;4.80;99.90;;;;;;6186897;23;20100;-85
2022/12/01 10:10:31;;;;;;;7.00;3.10;;;5.60;99.90;;;;;;6159858;23;20013;-85
2022/12/01 10:12:57;;;;;;;5.82;2.75;;;5.90;99.90;;;;;;6186324;23;20060;-85
2022/12/01 10:15:33;;;;;;;8.38;3.55;;;5.50;99.90;;;;;;6185990;23;20337;-85
2022/12/01 10:18:03;;;;;;;;;;;5.60;99.90;;;;;;6187006;23;20018;-85
2022/12/01 10:20:35;;;;;;;7.97;3.13;;;5.60;99.90;;;;;;6186284;23;19999;-85
2022/12/01 10:23:40;;;;;;;9.43;3.30;;;5.70;99.90;;;;;;6186213;23;20062;-85
2022/12/01 10:26:13;;;;;;;9.00;3.33;;;5.20;99.90;;;;;;6013787;23;20023;-85
2022/12/01 10:29:03;;;;;;;10.70;3.28;;;5.90;99.90;;;;;;6037820;23;20055;-85
2022/12/01 10:31:40;;;;;;;9.80;4.03;;;6.00;99.90;;;;;;6014050;23;20585;-85
2022/12/01 10:34:23;;;;;;;9.80;3.97;;;5.30;99.90;;;;;;6013690;23;20027;-85
2022/12/01 10:36:49;;;;;;;10.48;4.43;;;5.30;99.90;;;;;;6037852;23;20019;-85
2022/12/01 10:39:26;;;;;;;12.27;4.95;;;6.30;99.90;;;;;;6037614;23;20090;-86
2022/12/01 10:41:54;;;;;;;13.77;4.78;;;6.00;99.90;;;;;;6037694;23;20023;-85
2022/12/01 10:44:19;;;;;;;10.48;4.47;;;5.70;99.90;;;;;;6037663;23;20020;-85
2022/12/01 10:46:53;;;;;;;12.75;4.57;;;6.50;99.90;;;;;;6037478;23;20023;-84
2022/12/01 10:49:32;;;;;;;9.18;4.00;;;5.50;99.90;;;;;;6013680;23;20403;-87
2022/12/01 10:51:58;;;;;;;13.85;6.00;;;6.30;99.90;;;;;;5989640;23;20021;-85
2022/12/01 10:54:38;;;;;;;12.50;6.15;;;6.50;99.90;;;;;;6013379;23;20051;-84
2022/12/01 10:57:06;;;;;;;15.90;6.55;;;5.10;99.90;;;;;;6013664;23;20019;-84
2022/12/01 10:59:32;;;;;;;18.30;6.18;;;6.10;99.90;;;;;;6037042;23;20026;-84
2022/12/01 11:01:59;;;;;;;23.42;8.85;;;6.50;99.90;;;;;;6013519;23;20090;-85
2022/12/01 11:04:44;;;;;;;19.45;6.53;;;6.30;99.90;;;;;;6185259;23;20348;-84
2022/12/01 11:07:27;;;;;;;19.63;7.60;;;6.40;99.90;;;;;;6159048;23;20021;-84
2022/12/01 11:10:13;;;;;;;19.42;7.32;;;6.40;99.90;;;;;;6159115;23;20432;-84
2022/12/01 11:12:40;;;;;;;24.10;9.15;;;5.90;99.90;;;;;;6185014;23;20021;-83
2022/12/01 11:15:07;;;;;;;18.35;7.57;;;6.70;99.90;;;;;;6184855;23;20013;-84
2022/12/01 11:17:45;;;;;;;23.30;9.25;;;6.00;99.90;;;;;;6185609;23;20009;-84
2022/12/01 11:20:28;;;;;;;20.80;8.32;;;6.00;99.90;;;;;;6185826;23;20073;-86
2022/12/01 11:23:28;;;;;;;22.38;9.43;;;6.10;99.90;;;;;;6159150;23;20024;-84
2022/12/01 11:25:58;;;;;;;27.75;10.05;;;6.40;99.90;;;;;;6158923;23;20024;-84
2022/12/01 11:28:24;;;;;;;23.48;10.05;;;6.20;99.90;;;;;;6184527;23;20013;-84
2022/12/01 11:31:16;;;;;;;26.15;9.65;;;6.70;99.90;;;;;;6185607;23;20049;-84
2022/12/01 11:33:51;;;;;;;24.90;10.48;;;7.20;99.90;;;;;;6152187;23;20052;-84
2022/12/01 11:36:41;;;;;;;33.28;13.07;;;6.20;99.90;;;;;;6158942;23;20028;-84
2022/12/01 11:39:21;;;;;;;27.48;11.02;;;6.20;99.90;;;;;;6158691;23;20535;-85
2022/12/01 11:41:47;;;;;;;29.65;11.13;;;6.30;99.90;;;;;;6185104;23;20029;-84
2022/12/01 11:44:19;;;;;;;23.17;8.98;;;7.30;99.90;;;;;;6158914;23;20025;-85
2022/12/01 11:46:46;;;;;;;33.55;13.23;;;6.50;99.90;;;;;;6184941;23;20049;-84
2022/12/01 11:49:20;;;;;;;34.97;11.90;;;6.90;99.90;;;;;;6185515;23;20100;-85
2022/12/01 11:51:46;;;;;;;32.65;10.85;;;6.60;99.90;;;;;;6185110;23;20009;-84
2022/12/01 11:54:22;;;;;;;28.13;11.98;;;7.20;99.90;;;;;;6185109;23;20697;-86
2022/12/01 11:56:49;;;;;;;33.03;10.98;;;6.70;99.90;;;;;;6184205;23;20329;-83
2022/12/01 11:59:16;;;;;;;22.08;9.60;;;7.30;99.90;;;;;;6185358;23;20032;-85
2022/12/01 12:02:16;;;;;;;31.40;11.23;;;7.50;99.90;;;;;;6185077;23;20115;-84
2022/12/01 12:04:54;;;;;;;29.80;11.52;;;6.70;99.90;;;;;;6158266;23;20024;-85
2022/12/01 12:07:41;;;;;;;28.38;11.43;;;7.40;99.90;;;;;;6158517;23;20441;-85
2022/12/01 12:10:38;;;;;;;29.52;10.55;;;6.70;99.90;;;;;;6158787;23;20021;-84
2022/12/01 12:13:15;;;;;;;28.08;12.05;;;6.70;99.90;;;;;;6185170;23;20195;-85
2022/12/01 12:16:18;;;;;;;25.27;10.45;;;7.60;99.90;;;;;;6185172;23;20349;-83
2022/12/01 12:19:06;;;;;;;28.42;10.23;;;6.60;99.90;;;;;;6158266;23;20013;-85
2022/12/01 12:21:58;;;;;;;28.88;11.50;;;6.70;99.90;;;;;;6184780;23;20021;-87
2022/12/01 12:24:42;;;;;;;27.50;10.23;;;6.80;99.90;;;;;;6185223;23;20388;-86
2022/12/01 12:27:31;;;;;;;31.10;11.73;;;6.80;99.90;;;;;;6181550;23;20060;-85
2022/12/01 12:30:26;;;;;;;38.20;13.85;;;6.90;99.90;;;;;;6156680;23;20013;-85
2022/12/01 12:33:11;;;;;;;30.70;11.63;;;7.00;99.90;;;;;;6158080;23;20021;-85
2022/12/01 12:36:04;;;;;;;31.60;10.98;;;6.90;99.90;;;;;;6184637;23;20459;-85
2022/12/01 12:39:10;;;;;;;28.63;10.23;;;6.90;99.90;;;;;;6183466;23;20023;-85
2022/12/01 12:41:45;;;;;;;29.73;11.93;;;7.40;99.90;;;;;;6036280;23;20074;-85
2022/12/01 12:44:26;;;;;;;30.90;13.77;;;6.90;99.90;;;;;;6012083;23;20320;-85
2022/12/01 12:47:10;;;;;;;32.28;13.32;;;6.90;99.90;;;;;;6012668;23;20068;-85
2022/12/01 12:49:44;;;;;;;36.15;13.68;;;6.50;99.90;;;;;;6012499;23;20016;-85
2022/12/01 12:52:18;;;;;;;37.90;15.07;;;6.70;99.90;;;;;;6035753;23;20050;-85
2022/12/01 12:54:57;;;;;;;34.72;12.85;;;6.90;99.90;;;;;;6036095;23;20079;-86
2022/12/01 12:57:38;;;;;;;27.95;11.32;;;7.60;99.90;;;;;;6035749;23;20020;-85
2022/12/01 13:00:18;;;;;;;24.67;10.27;;;6.60;99.90;;;;;;6033793;23;20023;-85
2022/12/01 13:03:01;;;;;;;26.85;10.20;;;6.60;99.90;;;;;;6036089;23;20019;-85
2022/12/01 13:05:40;;;;;;;30.88;12.43;;;6.60;99.90;;;;;;6036038;23;20027;-85
2022/12/01 13:08:17;;;;;;;26.40;10.73;;;6.60;99.90;;;;;;6035538;23;20457;-85